Skip Navigation LinksHome page > Weather > Current weather Skip Navigation Links

Current Weather

General Edward Lawrence Logan Intl, Boston

For information only: do not use for flight planning or navigation.
Latest weather
Observation time Monday, January 24, 2022 11:16 PM EST
Local time Monday, January 24, 2022 11:35 PM EST
Flight conditions Instrument Meteorological Conditions
Winds
Wind direction South-Southwest (210°)
Wind speed 5 mph
Visibility 1 mi.
Present weather light snow, mist
Sky condition
Ceiling 1,300 ft. indefinite
Cloud layer vertical visibility 1,300 ft.
Temperature 28°F
Dewpoint 26°F
Altimeter 29.92 in.Hg
Precipitation
Precipitation last hour 0.02 in.
Derived measurements
Relative humidity 92%
Wind chill 23°F
Density altitude -2018 ft.
Remarks
Special weather observation.
System requires maintenance.
Automated weather observing station with precipitation discriminator.
METAR SPECI KBOS 250416Z 21004KT 1SM R04R/P6000FT -SN BR VV013 M02/M03 A2992 RMK AO2 P0002 T10221033 $

Settings

Location code

InnerDrive.Weather 4.0.6770.0 Release CLR 4.0.30319.42000
Copyright ©2018 Inner Drive Technology. All rights reserved. Portions Copyright ©1986-2018 David Braverman.

Find weather

Site navigation


Skip Navigation Links

Place info

Page info

PayPal - The safer, easier way to pay online!

Return home.

Copyright ©2022 Inner Drive Technology. Purveyors of fine, hand-crafted computer software. Page printed 2022-01-25T04:35:00 UTC.